Time;durP1;ratioP1;P1;durP2;ratioP2;P2;SDS_P1;SDS_P2;PMS_P1;PMS_P2;Temp;Humidity;BMP_temperature;BMP_pressure;BME280_temperature;BME280_humidity;BME280_pressure;Samples;Min_cycle;Max_cycle;Signal;HPM_P1;HPM_P2
2023/02/10 00:00:51;;;;;;;15.27;8.47;;;-3.50;99.90;;;-2.75;100.00;100009.97;5005635;28;20449;-76
2023/02/10 00:03:22;;;;;;;17.10;9.53;;;-3.60;99.90;;;-2.76;100.00;100007.47;5002164;28;20696;-76
2023/02/10 00:05:51;;;;;;;19.90;10.00;;;-3.60;99.90;;;-2.81;100.00;100007.63;4996127;28;20481;-76
2023/02/10 00:08:21;;;;;;;18.63;8.83;;;-3.60;99.90;;;-2.79;100.00;100010.97;5004110;28;20541;-76
2023/02/10 00:10:51;;;;;;;18.90;10.07;;;-3.60;99.90;;;-2.81;100.00;100010.19;5004254;28;20500;-76
2023/02/10 00:13:21;;;;;;;17.83;9.07;;;-3.60;99.90;;;-2.76;100.00;100008.31;5005542;28;20487;-76
2023/02/10 00:15:52;;;;;;;19.63;8.77;;;-3.40;99.90;;;-2.76;100.00;100010.03;5003782;28;20525;-76
2023/02/10 00:18:22;;;;;;;16.63;8.80;;;-3.50;99.90;;;-2.78;100.00;100020.34;5004301;28;20466;-76
2023/02/10 00:20:52;;;;;;;23.20;9.13;;;-3.60;99.90;;;-2.89;100.00;100012.19;5005224;28;20701;-76
2023/02/10 00:23:21;;;;;;;13.83;8.00;;;-3.70;99.90;;;-2.98;100.00;100017.63;5004722;28;20491;-76
2023/02/10 00:25:50;;;;;;;15.47;8.93;;;-3.80;99.90;;;-3.03;100.00;100019.53;5003558;28;20569;-76
2023/02/10 00:28:20;;;;;;;15.20;8.43;;;-3.90;99.90;;;-2.95;100.00;100027.75;5003412;28;20488;-76
2023/02/10 00:30:51;;;;;;;18.27;9.20;;;-3.80;99.90;;;-2.91;100.00;100026.75;5002357;28;20998;-76
2023/02/10 00:33:21;;;;;;;14.10;8.80;;;-3.60;99.90;;;-2.96;100.00;100036.31;5003020;28;20548;-76
2023/02/10 00:35:50;;;;;;;13.07;8.03;;;-3.70;99.90;;;-2.94;100.00;100026.88;5003801;28;20968;-76
2023/02/10 00:38:20;;;;;;;19.00;8.80;;;-3.70;99.90;;;-2.96;100.00;100033.78;5001805;28;20527;-76
2023/02/10 00:40:49;;;;;;;18.20;9.43;;;-3.80;99.90;;;-3.01;100.00;100017.72;5001492;28;20431;-76
2023/02/10 00:43:19;;;;;;;13.63;8.27;;;-3.80;99.90;;;-3.09;100.00;100024.84;5003989;28;20439;-76
2023/02/10 00:45:49;;;;;;;15.87;8.70;;;-3.90;99.90;;;-3.06;100.00;100027.31;5009023;28;20960;-76
2023/02/10 00:48:21;;;;;;;17.60;8.60;;;-3.90;99.90;;;-3.05;100.00;100031.50;5007239;28;20601;-76
2023/02/10 00:50:51;;;;;;;28.50;9.17;;;-3.90;99.90;;;-3.06;100.00;100042.66;5007665;28;20480;-76
2023/02/10 00:53:20;;;;;;;15.40;7.57;;;-3.90;99.90;;;-3.11;100.00;100050.47;5007912;28;20482;-76
2023/02/10 00:55:50;;;;;;;18.10;8.87;;;-3.90;99.90;;;-3.26;100.00;100040.75;5009790;28;20464;-77
2023/02/10 00:58:19;;;;;;;15.27;7.63;;;-4.10;99.90;;;-3.22;100.00;100047.44;5008405;28;20538;-76
2023/02/10 01:00:50;;;;;;;15.97;8.77;;;-4.10;99.90;;;-3.20;100.00;100042.28;5008861;28;20510;-76
2023/02/10 01:03:21;;;;;;;17.40;7.50;;;-4.00;99.90;;;-3.28;100.00;100051.94;5009033;28;20540;-76
2023/02/10 01:05:52;;;;;;;16.10;8.60;;;-4.10;99.90;;;-3.27;100.00;100054.44;5006717;28;20500;-76
2023/02/10 01:08:21;;;;;;;14.30;8.67;;;-4.10;99.90;;;-3.19;100.00;100059.28;5007493;28;20955;-77
2023/02/10 01:11:00;;;;;;;15.37;8.60;;;-3.90;99.90;;;-3.22;100.00;100056.84;5007376;28;20549;-77
2023/02/10 01:13:30;;;;;;;11.93;7.90;;;-4.00;99.90;;;-3.22;100.00;100056.84;5006909;28;20490;-76
2023/02/10 01:15:58;;;;;;;24.17;8.43;;;-4.00;99.90;;;-3.30;100.00;100058.81;5007536;28;20495;-76
2023/02/10 01:18:30;;;;;;;16.90;8.50;;;-4.10;99.90;;;-3.35;100.00;100076.88;5007544;28;20467;-76
2023/02/10 01:21:06;;;;;;;16.53;8.33;;;-4.20;99.90;;;-3.29;100.00;100075.81;5008279;28;20546;-76
2023/02/10 01:23:37;;;;;;;18.07;7.63;;;-4.10;99.90;;;-3.31;100.00;100075.06;5006654;28;20467;-76
2023/02/10 01:26:07;;;;;;;18.20;8.80;;;-4.10;99.90;;;-3.47;100.00;100077.25;5004417;28;20459;-76
2023/02/10 01:28:37;;;;;;;20.50;7.60;;;-4.30;99.90;;;-3.43;100.00;100078.00;5004932;28;21048;-76
2023/02/10 01:31:07;;;;;;;16.13;8.40;;;-4.30;99.90;;;-3.40;100.00;100073.63;5006079;28;20502;-76
2023/02/10 01:33:41;;;;;;;23.43;8.03;;;-4.20;99.90;;;-3.37;100.00;100082.94;5007928;28;20482;-76
2023/02/10 01:36:12;;;;;;;16.13;8.13;;;-4.20;99.90;;;-3.40;100.00;100080.47;5007598;28;20518;-76
2023/02/10 01:38:43;;;;;;;14.87;8.30;;;-4.20;99.90;;;-3.45;100.00;100084.88;5007437;28;20458;-76
2023/02/10 01:41:14;;;;;;;12.47;8.30;;;-4.30;99.90;;;-3.46;100.00;100073.81;5007189;28;20452;-76
2023/02/10 01:44:01;;;;;;;16.03;7.20;;;-4.30;99.90;;;-3.49;100.00;100080.75;5005734;28;20530;-76
2023/02/10 01:46:32;;;;;;;16.90;7.57;;;-4.40;99.90;;;-3.56;100.00;100088.63;5005630;28;20483;-76
2023/02/10 01:49:08;;;;;;;12.67;7.57;;;-4.40;99.90;;;-3.54;100.00;100085.19;5006448;28;20551;-76
2023/02/10 01:51:46;;;;;;;18.10;8.40;;;-4.40;99.90;;;-3.53;100.00;100077.47;5005319;28;21161;-76
2023/02/10 01:54:22;;;;;;;16.37;7.40;;;-4.30;99.90;;;-3.48;100.00;100085.84;5002511;28;20546;-76
2023/02/10 01:56:53;;;;;;;15.80;7.70;;;-4.30;99.90;;;-3.48;100.00;100085.00;5004972;28;20558;-76
2023/02/10 01:59:25;;;;;;;13.00;7.37;;;-4.30;99.90;;;-3.57;100.00;100086.94;5006201;28;20460;-76
2023/02/10 02:01:56;;;;;;;12.10;7.20;;;-4.40;99.90;;;-3.64;100.00;100087.19;5003834;28;20988;-76
2023/02/10 02:04:28;;;;;;;15.33;8.67;;;-4.50;99.90;;;-3.74;100.00;100083.25;5003726;28;20542;-76
2023/02/10 02:06:58;;;;;;;12.03;7.90;;;-4.60;99.90;;;-3.65;100.00;100077.84;5003424;28;20455;-76
2023/02/10 02:09:27;;;;;;;15.73;8.63;;;-4.50;99.90;;;-3.66;100.00;100087.25;5001908;28;20475;-76
2023/02/10 02:12:10;;;;;;;16.90;7.97;;;-4.50;99.90;;;-3.72;100.00;100074.66;5002223;28;20502;-76
2023/02/10 02:14:53;;;;;;;22.80;9.27;;;-4.60;99.90;;;-3.73;100.00;100070.44;5004939;28;21072;-76
2023/02/10 02:17:33;;;;;;;14.60;8.30;;;-4.60;99.90;;;-3.72;100.00;100072.13;5005354;28;20468;-76
2023/02/10 02:21:11;;;;;;;14.90;7.40;;;-4.40;99.90;;;-3.71;100.00;100076.31;5005230;28;20445;-76
2023/02/10 02:24:18;;;;;;;14.07;7.47;;;-4.50;99.90;;;-3.76;100.00;100060.31;4996241;28;21295;-76
2023/02/10 02:27:18;;;;;;;17.17;8.40;;;-4.60;99.90;;;-3.70;100.00;100075.44;5003198;28;20477;-76
2023/02/10 02:30:30;;;;;;;18.47;8.27;;;-4.50;99.90;;;-3.62;100.00;100083.72;5001570;28;20466;-76
2023/02/10 02:33:09;;;;;;;16.73;8.47;;;-4.40;99.90;;;-3.70;100.00;100085.66;5003512;28;20467;-76
2023/02/10 02:35:49;;;;;;;16.07;7.23;;;-4.50;99.90;;;-3.67;100.00;100082.16;4962344;28;1159482;-76
2023/02/10 02:38:19;;;;;;;13.63;8.50;;;-4.50;99.90;;;-3.61;100.00;100085.38;5003830;28;20822;-76
2023/02/10 02:40:49;;;;;;;12.03;6.80;;;-4.40;99.90;;;-3.61;100.00;100085.38;5004084;28;20534;-76
2023/02/10 02:43:19;;;;;;;13.33;6.97;;;-4.40;99.90;;;-3.60;100.00;100079.38;5007090;28;20498;-76
2023/02/10 02:45:59;;;;;;;14.70;8.00;;;-4.40;99.90;;;-3.58;100.00;100074.22;5004922;28;21368;-76
2023/02/10 02:48:51;;;;;;;12.10;6.60;;;-4.30;99.90;;;-3.65;100.00;100083.81;5005042;28;20486;-76
2023/02/10 02:51:37;;;;;;;15.67;7.90;;;-4.50;99.90;;;-3.68;100.00;100077.97;5004630;28;21048;-76
2023/02/10 02:54:19;;;;;;;12.87;7.50;;;-4.50;99.90;;;-3.60;100.00;100081.09;5005783;28;20507;-76
2023/02/10 02:56:58;;;;;;;18.40;8.33;;;-4.40;99.90;;;-3.60;100.00;100087.03;5005711;28;20455;-76
2023/02/10 02:59:36;;;;;;;11.77;7.80;;;-4.40;99.90;;;-3.54;100.00;100090.31;5004901;28;20471;-76
2023/02/10 03:02:11;;;;;;;18.37;8.90;;;-4.30;99.90;;;-3.41;100.00;100101.81;5004025;28;20519;-76
2023/02/10 03:04:43;;;;;;;16.20;8.13;;;-4.00;99.90;;;-3.37;100.00;100091.44;5005858;28;20561;-76
2023/02/10 03:07:12;;;;;;;18.93;8.00;;;-4.00;99.90;;;-3.44;100.00;100086.56;5005424;28;20463;-77
2023/02/10 03:09:42;;;;;;;19.90;8.50;;;-4.10;99.90;;;-3.37;100.00;100094.00;5005625;28;20466;-76
2023/02/10 03:12:13;;;;;;;16.00;8.37;;;-4.00;99.90;;;-3.28;100.00;100090.28;5004366;28;20911;-76
2023/02/10 03:14:42;;;;;;;18.87;8.97;;;-3.90;99.90;;;-3.21;100.00;100091.75;5003215;28;20522;-76
2023/02/10 03:17:12;;;;;;;15.03;8.10;;;-3.80;99.90;;;-3.16;100.00;100097.56;5003221;28;20469;-76
2023/02/10 03:19:42;;;;;;;27.50;9.23;;;-3.70;99.90;;;-3.13;100.00;100090.63;5004408;28;20839;-76
2023/02/10 03:22:12;;;;;;;16.10;7.80;;;-3.70;99.90;;;-3.10;100.00;100089.69;5002774;28;20871;-76
2023/02/10 03:24:41;;;;;;;16.03;8.27;;;-3.70;99.90;;;-3.05;100.00;100095.47;5003267;28;20460;-76
2023/02/10 03:27:11;;;;;;;24.53;8.80;;;-3.70;99.90;;;-3.00;100.00;100097.88;5001668;28;20473;-77
2023/02/10 03:29:41;;;;;;;18.17;10.13;;;-3.70;99.90;;;-2.97;100.00;100105.44;5003919;28;20468;-75
2023/02/10 03:32:12;;;;;;;17.50;8.70;;;-3.60;99.90;;;-2.92;100.00;100101.88;5004439;28;20570;-76
2023/02/10 03:34:43;;;;;;;21.47;9.37;;;-3.40;99.90;;;-2.87;100.00;100099.97;5001199;28;21434;-76
2023/02/10 03:37:13;;;;;;;17.40;8.73;;;-3.50;99.90;;;-2.83;100.00;100101.53;5002983;28;20533;-77
2023/02/10 03:39:43;;;;;;;22.03;9.63;;;-3.50;99.90;;;-2.83;100.00;100104.09;5000635;28;20485;-73
2023/02/10 03:42:11;;;;;;;15.47;8.37;;;-3.50;99.90;;;-2.78;100.00;100106.50;5002234;28;20563;-76
2023/02/10 03:44:42;;;;;;;16.73;8.60;;;-3.40;99.90;;;-2.74;100.00;100106.34;5004586;28;20556;-76
2023/02/10 03:47:10;;;;;;;25.90;10.13;;;-3.40;99.90;;;-2.74;100.00;100111.44;5001025;28;20477;-76
2023/02/10 03:49:42;;;;;;;16.60;9.13;;;-3.30;99.90;;;-2.74;100.00;100111.44;5002235;28;20481;-76
2023/02/10 03:52:12;;;;;;;19.33;10.23;;;-3.40;99.90;;;-2.69;100.00;100103.63;5002172;28;20501;-77
2023/02/10 03:54:41;;;;;;;18.27;9.20;;;-3.40;99.90;;;-2.65;100.00;100105.19;5001307;28;20580;-76
2023/02/10 03:57:12;;;;;;;21.67;9.77;;;-3.30;99.90;;;-2.62;100.00;100111.03;5002747;28;20521;-77
2023/02/10 03:59:42;;;;;;;13.37;8.93;;;-3.30;99.90;;;-2.60;100.00;100108.41;5002014;28;20560;-75
2023/02/10 04:02:13;;;;;;;20.07;9.70;;;-3.30;99.90;;;-2.57;100.00;100116.81;5005138;28;20608;-76
2023/02/10 04:04:44;;;;;;;22.53;10.77;;;-3.30;99.90;;;-2.54;100.00;100121.00;5005180;28;20488;-76
2023/02/10 04:07:14;;;;;;;19.87;10.50;;;-3.20;99.90;;;-2.50;100.00;100119.19;5004643;28;20468;-76
2023/02/10 04:09:45;;;;;;;19.20;10.30;;;-3.20;99.90;;;-2.47;100.00;100119.91;5004879;28;20482;-76
2023/02/10 04:12:14;;;;;;;18.97;9.70;;;-3.20;99.90;;;-2.49;100.00;100120.84;5002243;28;20522;-74
2023/02/10 04:14:44;;;;;;;18.63;8.63;;;-3.10;99.90;;;-2.51;100.00;100122.63;5001768;28;20463;-76
2023/02/10 04:17:14;;;;;;;14.00;8.10;;;-3.20;99.90;;;-2.48;100.00;100127.63;5002857;28;20559;-77
2023/02/10 04:19:45;;;;;;;19.00;10.83;;;-3.20;99.90;;;-2.45;100.00;100120.69;5003874;28;20457;-76
2023/02/10 04:22:15;;;;;;;16.33;9.27;;;-3.10;99.90;;;-2.39;100.00;100117.06;5005111;28;20521;-76
2023/02/10 04:24:46;;;;;;;26.07;10.30;;;-3.00;99.90;;;-2.35;100.00;100116.06;5004550;28;20556;-76
2023/02/10 04:27:15;;;;;;;18.90;10.87;;;-3.00;99.90;;;-2.32;100.00;100118.50;5004863;28;20474;-76
2023/02/10 04:29:44;;;;;;;21.43;9.03;;;-3.00;99.90;;;-2.30;100.00;100115.03;5004943;28;20523;-76
2023/02/10 04:32:13;;;;;;;15.30;9.00;;;-2.90;99.90;;;-2.29;100.00;100119.22;5004621;28;20500;-76
2023/02/10 04:34:44;;;;;;;18.77;10.20;;;-3.00;99.90;;;-2.26;100.00;100119.16;5003675;28;20975;-76
2023/02/10 04:37:14;;;;;;;19.10;9.50;;;-2.90;99.90;;;-2.24;100.00;100122.47;5005405;28;20544;-77
2023/02/10 04:39:43;;;;;;;22.73;9.83;;;-2.90;99.90;;;-2.20;100.00;100118.06;5004727;28;20470;-76
2023/02/10 04:42:13;;;;;;;19.40;9.90;;;-2.90;99.90;;;-2.21;100.00;100129.19;5003235;28;20492;-77
2023/02/10 04:44:43;;;;;;;17.53;8.67;;;-2.90;99.90;;;-2.19;100.00;100128.28;5005354;28;21036;-76
2023/02/10 04:47:14;;;;;;;18.90;8.90;;;-2.90;99.90;;;-2.15;100.00;100134.09;5003954;28;20492;-76
2023/02/10 04:49:45;;;;;;;18.30;9.87;;;-2.80;99.90;;;-2.12;100.00;100136.56;5003426;28;20472;-76
2023/02/10 04:52:15;;;;;;;23.53;9.00;;;-2.70;99.90;;;-2.09;100.00;100141.59;5003503;28;20486;-73
2023/02/10 04:54:45;;;;;;;22.20;10.10;;;-2.80;99.90;;;-2.06;100.00;100141.47;5002978;28;20501;-76
2023/02/10 04:57:14;;;;;;;15.83;9.03;;;-2.70;99.90;;;-2.04;100.00;100142.22;5004554;28;20471;-77
2023/02/10 04:59:44;;;;;;;14.30;8.80;;;-2.60;99.90;;;-2.01;100.00;100147.25;5001931;28;20467;-77
2023/02/10 05:02:13;;;;;;;19.07;9.37;;;-2.70;99.90;;;-2.00;100.00;100146.34;5003980;28;20949;-76
2023/02/10 05:04:45;;;;;;;21.70;9.40;;;-2.70;99.90;;;-1.96;100.00;100149.63;5003681;28;20567;-76
2023/02/10 05:07:15;;;;;;;22.33;9.80;;;-2.60;99.90;;;-1.94;100.00;100155.56;5002541;28;20501;-76
2023/02/10 05:09:44;;;;;;;25.03;10.37;;;-2.60;99.90;;;-1.93;100.00;100152.94;5003853;28;20553;-76
2023/02/10 05:12:13;;;;;;;15.17;8.93;;;-2.60;99.90;;;-1.91;100.00;100153.72;5003686;28;20949;-76
2023/02/10 05:14:43;;;;;;;21.40;9.83;;;-2.60;99.90;;;-1.88;100.00;100158.72;5001849;28;20473;-76
2023/02/10 05:17:12;;;;;;;20.87;9.97;;;-2.60;99.90;;;-1.90;100.00;100157.09;5004131;28;20564;-76
2023/02/10 05:19:42;;;;;;;16.30;9.20;;;-2.60;99.90;;;-1.87;100.00;100152.69;5002544;28;20454;-77
2023/02/10 05:22:13;;;;;;;17.17;8.67;;;-2.50;99.90;;;-1.85;100.00;100150.94;5001548;28;20496;-77
2023/02/10 05:24:44;;;;;;;19.77;8.77;;;-2.50;99.90;;;-1.81;100.00;100155.06;5003627;28;20846;-76
2023/02/10 05:27:14;;;;;;;19.47;10.47;;;-2.50;99.90;;;-1.80;100.00;100164.38;4996648;28;20514;-76
2023/02/10 05:29:44;;;;;;;15.53;9.07;;;-2.50;99.90;;;-1.77;100.00;100169.41;4989477;28;21005;-76
2023/02/10 05:32:13;;;;;;;15.67;8.83;;;-2.40;99.90;;;-1.74;100.00;100166.75;4992146;28;20494;-76
2023/02/10 05:34:44;;;;;;;15.47;9.20;;;-2.40;99.90;;;-1.72;100.00;100156.41;4994174;28;20527;-77
2023/02/10 05:37:16;;;;;;;24.57;10.23;;;-2.40;99.90;;;-1.70;100.00;100164.91;5008591;28;20470;-76
2023/02/10 05:39:45;;;;;;;17.87;9.20;;;-2.30;99.90;;;-1.68;100.00;100163.09;5008055;28;20463;-77
2023/02/10 05:42:15;;;;;;;15.50;8.87;;;-2.30;99.90;;;-1.66;100.00;100172.41;5006070;28;20531;-72
2023/02/10 05:44:46;;;;;;;20.00;9.80;;;-2.20;99.90;;;-1.63;100.00;100176.56;5006041;28;20473;-77
2023/02/10 05:47:17;;;;;;;20.43;9.90;;;-2.20;99.90;;;-1.62;100.00;100173.97;5002275;28;20486;-77
2023/02/10 05:49:47;;;;;;;20.43;9.80;;;-2.20;99.90;;;-1.61;100.00;100180.75;5005575;28;20467;-77
2023/02/10 05:52:18;;;;;;;20.00;10.10;;;-2.30;99.90;;;-1.59;100.00;100168.72;5008384;28;20524;-78
2023/02/10 05:54:47;;;;;;;18.50;10.20;;;-2.20;99.90;;;-1.60;100.00;100169.59;5007522;28;20506;-78
2023/02/10 05:57:17;;;;;;;22.60;9.70;;;-2.20;99.90;;;-1.60;100.00;100161.91;5008008;28;20490;-78
2023/02/10 05:59:46;;;;;;;18.90;9.23;;;-2.20;99.90;;;-1.60;100.00;100164.47;5009327;28;20562;-78
2023/02/10 06:02:16;;;;;;;18.03;9.57;;;-2.20;99.90;;;-1.57;100.00;100166.94;5008844;28;20967;-77
2023/02/10 06:04:45;;;;;;;18.80;8.53;;;-2.10;99.90;;;-1.54;100.00;100158.28;5008301;28;20541;-78
2023/02/10 06:07:16;;;;;;;21.80;10.30;;;-2.20;99.90;;;-1.52;100.00;100164.19;5008395;28;20964;-78
2023/02/10 06:09:46;;;;;;;17.07;9.50;;;-2.20;99.90;;;-1.52;100.00;100162.44;5008974;28;20528;-78
2023/02/10 06:12:15;;;;;;;18.43;10.37;;;-2.20;99.90;;;-1.52;100.00;100159.88;5008152;28;20516;-78
2023/02/10 06:14:45;;;;;;;21.77;10.20;;;-2.10;99.90;;;-1.49;100.00;100163.25;5007318;28;20845;-78
2023/02/10 06:17:15;;;;;;;17.53;8.93;;;-2.00;99.90;;;-1.54;100.00;100166.81;5008616;28;20461;-78
2023/02/10 06:19:45;;;;;;;18.00;9.40;;;-2.20;99.90;;;-1.55;100.00;100167.69;5009013;28;20470;-78
2023/02/10 06:22:15;;;;;;;27.03;11.80;;;-2.20;99.90;;;-1.57;100.00;100156.69;5008813;28;20513;-78
2023/02/10 06:24:46;;;;;;;31.20;11.17;;;-2.30;99.90;;;-1.58;100.00;100159.28;5008368;28;20871;-77
2023/02/10 06:27:16;;;;;;;22.77;10.93;;;-2.30;99.90;;;-1.60;100.00;100166.22;5008876;28;20520;-78
2023/02/10 06:29:47;;;;;;;19.97;11.90;;;-2.30;99.90;;;-1.60;100.00;100164.47;5008153;28;20466;-78
2023/02/10 06:32:17;;;;;;;24.53;10.80;;;-2.30;99.90;;;-1.60;100.00;100164.47;5007947;28;20480;-77
2023/02/10 06:34:47;;;;;;;22.80;10.27;;;-2.20;99.90;;;-1.65;100.00;100175.81;5007551;28;21497;-78
2023/02/10 06:37:16;;;;;;;18.80;9.50;;;-2.30;99.90;;;-1.65;100.00;100166.38;5008920;28;20781;-78
2023/02/10 06:39:47;;;;;;;14.47;8.90;;;-2.30;99.90;;;-1.66;100.00;100179.25;5008401;28;20887;-78
2023/02/10 06:42:17;;;;;;;14.67;9.27;;;-2.30;99.90;;;-1.74;100.00;100168.47;5006517;28;20474;-78
2023/02/10 06:44:47;;;;;;;22.57;10.20;;;-2.40;99.90;;;-1.83;100.00;100179.03;5008366;28;20467;-78
2023/02/10 06:47:18;;;;;;;18.17;9.03;;;-2.40;99.90;;;-1.88;100.00;100181.81;5008124;28;20792;-78
2023/02/10 06:49:48;;;;;;;18.23;8.53;;;-2.70;99.90;;;-1.86;100.00;100174.03;5007539;28;20535;-78
2023/02/10 06:52:19;;;;;;;18.00;9.47;;;-2.60;99.90;;;-1.90;100.00;100173.31;5007329;28;20477;-78
2023/02/10 06:54:50;;;;;;;16.70;8.77;;;-2.60;99.90;;;-1.93;100.00;100178.56;5007809;28;20501;-77
2023/02/10 06:57:20;;;;;;;24.20;9.73;;;-2.70;99.90;;;-1.94;100.00;100182.00;5007316;28;20465;-78
2023/02/10 06:59:52;;;;;;;20.93;9.80;;;-2.70;99.90;;;-2.00;100.00;100181.41;5008109;28;20468;-78
2023/02/10 07:02:22;;;;;;;22.30;10.20;;;-2.80;99.90;;;-2.00;100.00;100187.38;5007897;28;20481;-78
2023/02/10 07:04:52;;;;;;;17.97;9.03;;;-2.70;99.90;;;-2.01;100.00;100197.69;5008403;28;20464;-78
2023/02/10 07:07:22;;;;;;;21.03;8.80;;;-2.70;99.90;;;-2.05;100.00;100199.53;5007387;28;20466;-78
2023/02/10 07:09:53;;;;;;;18.30;9.20;;;-2.80;99.90;;;-2.13;100.00;100202.34;5006971;28;20522;-77
2023/02/10 07:12:24;;;;;;;15.90;8.23;;;-3.00;99.90;;;-2.12;100.00;100205.75;5008573;28;20547;-78
2023/02/10 07:14:55;;;;;;;23.60;9.23;;;-2.90;99.90;;;-2.12;100.00;100201.44;5006720;28;20995;-78
2023/02/10 07:17:24;;;;;;;16.17;8.90;;;-2.90;99.90;;;-2.17;100.00;100210.19;5008664;28;20500;-78
2023/02/10 07:19:54;;;;;;;16.63;9.40;;;-3.00;99.90;;;-2.16;100.00;100211.88;5008674;28;20462;-77
2023/02/10 07:22:25;;;;;;;16.70;8.77;;;-3.00;99.90;;;-2.18;100.00;100213.63;5006501;28;20525;-78
2023/02/10 07:24:56;;;;;;;13.07;8.53;;;-2.90;99.90;;;-2.20;100.00;100211.16;5005471;28;20970;-78
2023/02/10 07:27:27;;;;;;;20.03;8.57;;;-3.00;99.90;;;-2.22;100.00;100212.91;5009061;28;20553;-78
2023/02/10 07:29:57;;;;;;;17.07;7.73;;;-3.00;99.90;;;-2.18;100.00;100213.63;5006657;28;20495;-78
2023/02/10 07:32:27;;;;;;;20.77;10.33;;;-2.90;99.90;;;-2.18;100.00;100213.63;5008374;28;20463;-78
2023/02/10 07:34:57;;;;;;;14.43;8.83;;;-2.90;99.90;;;-2.22;100.00;100219.78;5006553;28;21043;-77
2023/02/10 07:37:26;;;;;;;15.33;8.10;;;-2.90;99.90;;;-2.23;100.00;100216.38;5007208;28;20474;-78
2023/02/10 07:39:58;;;;;;;14.53;8.50;;;-3.00;99.90;;;-2.22;100.00;100219.78;5006770;28;20857;-77
2023/02/10 07:42:28;;;;;;;19.23;8.90;;;-3.00;99.90;;;-2.22;100.00;100217.22;5005987;28;20470;-78
2023/02/10 07:44:58;;;;;;;17.80;9.37;;;-2.90;99.90;;;-2.26;100.00;100220.78;5006350;28;20575;-77
2023/02/10 07:47:27;;;;;;;12.97;8.20;;;-3.00;99.90;;;-2.24;100.00;100218.97;5007930;28;20494;-77
2023/02/10 07:49:58;;;;;;;18.97;9.67;;;-3.00;99.90;;;-2.28;100.00;100225.09;5006736;28;20953;-77
2023/02/10 07:52:27;;;;;;;26.67;8.70;;;-3.00;99.90;;;-2.29;100.00;100231.94;5005674;28;20523;-77
2023/02/10 07:55:02;;;;;;;27.83;8.70;;;-3.00;99.90;;;-2.30;100.00;100235.41;5005841;28;20496;-78
2023/02/10 07:57:31;;;;;;;14.67;8.70;;;-3.00;99.90;;;-2.28;100.00;100246.44;5007357;28;20473;-77
2023/02/10 08:00:01;;;;;;;18.00;8.47;;;-3.00;99.90;;;-2.29;100.00;100244.75;5006993;28;20460;-78
2023/02/10 08:02:31;;;;;;;13.87;8.07;;;-3.00;99.90;;;-2.25;100.00;100232.66;5006420;28;20496;-77
2023/02/10 08:05:01;;;;;;;15.93;9.10;;;-2.90;99.90;;;-2.23;100.00;100238.59;5005162;28;20480;-78
2023/02/10 08:07:31;;;;;;;14.57;8.13;;;-2.90;99.90;;;-2.22;100.00;100237.72;5005849;28;20470;-77
2023/02/10 08:10:02;;;;;;;16.63;9.00;;;-2.80;99.90;;;-2.20;100.00;100235.91;5006215;28;20465;-78
2023/02/10 08:12:33;;;;;;;18.33;9.70;;;-2.80;99.90;;;-2.15;100.00;100234.84;5006014;28;20461;-78
2023/02/10 08:15:03;;;;;;;15.80;10.70;;;-2.80;99.90;;;-2.10;100.00;100237.28;5006333;28;20500;-78
2023/02/10 08:17:33;;;;;;;15.77;8.60;;;-2.70;99.90;;;-2.09;100.00;100231.25;5006468;28;20466;-78
2023/02/10 08:20:02;;;;;;;16.80;8.97;;;-2.70;99.90;;;-2.06;100.00;100231.16;5003428;28;20506;-78
2023/02/10 08:22:34;;;;;;;17.90;9.20;;;-2.70;99.90;;;-2.05;100.00;100236.19;5005026;28;20484;-78
2023/02/10 08:25:06;;;;;;;18.87;9.13;;;-2.70;99.90;;;-2.04;100.00;100229.34;5006179;28;20488;-78
2023/02/10 08:27:36;;;;;;;15.90;9.60;;;-2.70;99.90;;;-2.00;100.00;100232.66;5006649;28;20470;-78
2023/02/10 08:30:08;;;;;;;16.00;9.40;;;-2.60;99.90;;;-2.00;100.00;100238.63;5005681;28;20466;-79
2023/02/10 08:32:37;;;;;;;15.00;8.90;;;-2.70;99.90;;;-1.99;100.00;100244.59;5006402;28;20469;-78
2023/02/10 08:35:09;;;;;;;18.63;10.83;;;-2.70;99.90;;;-1.96;100.00;100245.31;5005975;28;20499;-78
2023/02/10 08:37:38;;;;;;;16.37;9.40;;;-2.60;99.90;;;-1.94;100.00;100238.38;5006836;28;20466;-79
2023/02/10 08:40:10;;;;;;;23.97;11.17;;;-2.60;99.90;;;-1.89;100.00;100241.63;5006533;28;20466;-79
2023/02/10 08:42:40;;;;;;;16.90;9.63;;;-2.60;99.90;;;-1.82;100.00;100242.25;5005672;28;20482;-78
2023/02/10 08:45:11;;;;;;;17.73;10.10;;;-2.50;99.90;;;-1.79;100.00;100242.97;5006038;28;20531;-78
2023/02/10 08:47:40;;;;;;;22.40;9.70;;;-2.40;99.90;;;-1.72;100.00;100239.31;5004909;28;20556;-78
2023/02/10 08:50:11;;;;;;;20.07;10.00;;;-2.30;99.90;;;-1.65;100.00;100243.31;5005693;28;20472;-78
2023/02/10 08:52:41;;;;;;;22.77;12.10;;;-2.30;99.90;;;-1.58;100.00;100242.19;5006857;28;20976;-78
2023/02/10 08:55:12;;;;;;;25.53;10.63;;;-2.20;99.90;;;-1.51;100.00;100247.94;5007072;28;20914;-78
2023/02/10 08:57:44;;;;;;;18.90;11.40;;;-2.10;99.90;;;-1.43;100.00;100242.53;5005337;28;20503;-78
2023/02/10 09:00:16;;;;;;;27.83;10.20;;;-2.00;99.90;;;-1.36;100.00;100246.53;5006402;28;20487;-79
2023/02/10 09:02:46;;;;;;;28.33;11.37;;;-1.90;99.90;;;-1.29;100.00;100240.28;5005641;28;20518;-79
2023/02/10 09:05:18;;;;;;;20.80;10.50;;;-1.90;99.90;;;-1.22;100.00;100239.13;5008544;28;20474;-78
2023/02/10 09:07:49;;;;;;;22.07;10.23;;;-1.80;99.90;;;-1.15;100.00;100236.28;5010059;28;20458;-78
2023/02/10 09:10:20;;;;;;;27.17;12.57;;;-1.70;99.90;;;-1.07;100.00;100235.97;5008437;28;20540;-78
2023/02/10 09:12:52;;;;;;;27.10;13.33;;;-1.60;99.90;;;-1.00;100.00;100229.69;5010301;28;20532;-78
2023/02/10 09:15:21;;;;;;;22.40;11.07;;;-1.50;99.90;;;-0.92;100.00;100222.53;5008907;28;21265;-79
2023/02/10 09:17:51;;;;;;;30.43;11.70;;;-1.40;99.90;;;-0.85;100.00;100226.53;5011120;28;20491;-78
2023/02/10 09:20:21;;;;;;;24.73;11.87;;;-1.40;99.90;;;-0.77;100.00;100227.06;5009805;28;20462;-78
2023/02/10 09:22:52;;;;;;;40.87;13.07;;;-1.30;99.90;;;-0.71;100.00;100229.38;5009995;28;20895;-78
2023/02/10 09:25:23;;;;;;;22.03;12.37;;;-1.20;99.90;;;-0.64;100.00;100228.22;5008249;28;20883;-78
2023/02/10 09:27:54;;;;;;;18.93;11.97;;;-1.20;99.90;;;-0.58;100.00;100232.25;5008550;28;21221;-79
2023/02/10 09:30:24;;;;;;;29.30;12.93;;;-1.10;99.90;;;-0.49;100.00;100225.91;5007311;28;20463;-78
2023/02/10 09:32:55;;;;;;;23.27;12.23;;;-1.00;99.90;;;-0.42;100.00;100232.47;5010084;28;20459;-78
2023/02/10 09:35:25;;;;;;;24.83;12.20;;;-0.90;99.90;;;-0.35;100.00;100231.31;5008838;28;20510;-78
2023/02/10 09:37:55;;;;;;;19.90;11.20;;;-0.90;99.90;;;-0.28;100.00;100240.44;5009719;28;20476;-78
2023/02/10 09:40:33;;;;;;;18.50;11.07;;;-0.80;99.90;;;-0.22;100.00;100240.19;5008624;28;20494;-78
2023/02/10 09:43:26;;;;;;;19.47;10.90;;;-0.70;99.90;;;-0.13;100.00;100232.91;5009556;28;20498;-78
2023/02/10 09:46:09;;;;;;;21.07;11.30;;;-0.50;99.90;;;-0.06;100.00;100226.59;5009598;28;20889;-79
2023/02/10 09:49:01;;;;;;;21.50;11.27;;;-0.50;99.90;;;0.03;100.00;100240.81;5010063;28;20463;-78
2023/02/10 09:51:53;;;;;;;23.57;12.30;;;-0.40;99.90;;;0.12;100.00;100232.66;5007532;28;20506;-79
2023/02/10 09:54:23;;;;;;;22.77;12.30;;;-0.20;99.90;;;0.21;100.00;100224.53;5008935;28;20549;-79
2023/02/10 09:56:54;;;;;;;20.53;11.63;;;-0.20;99.90;;;0.25;100.00;100223.50;5009069;28;20958;-79
2023/02/10 09:59:25;;;;;;;31.10;12.90;;;-0.20;99.90;;;0.34;100.00;100230.00;5008287;28;20898;-79
2023/02/10 10:02:03;;;;;;;18.40;11.03;;;-0.10;99.90;;;0.41;100.00;100228.81;5007651;28;21590;-78
2023/02/10 10:04:34;;;;;;;24.77;12.43;;;0.10;99.90;;;0.47;100.00;100231.94;5008539;28;21020;-78
2023/02/10 10:07:20;;;;;;;19.70;11.50;;;0.10;99.90;;;0.54;100.00;100226.50;5010260;28;20498;-78
2023/02/10 10:10:02;;;;;;;20.70;11.53;;;0.10;99.90;;;0.61;100.00;100233.88;5007366;28;20473;-79
2023/02/10 10:12:33;;;;;;;23.33;11.10;;;0.20;99.90;;;0.68;100.00;100230.13;5008041;28;20800;-79
2023/02/10 10:15:04;;;;;;;18.70;11.30;;;0.20;99.90;;;0.74;100.00;100231.56;5007117;28;21075;-79
2023/02/10 10:18:03;;;;;;;15.87;9.93;;;0.30;99.90;;;0.83;100.00;100228.56;5008343;28;20961;-78